Terminal Aerodrome Forecast
Issued by NWS Omaha/Valley, NE

Home | Current Version | Previous Version | Text Only | Print | Product List | Glossary On
Versions: 1 2 3 4 5 6 7 8 9 10 11 12 13 14 15 16 17 18 19 20 21 22 23 24 25 26 27 28 29 30 31 32 33 34
000
FTUS43 KOAX 252320
TAFOMA
TAF
KOMA 252320Z 2600/2624 17014G21KT P6SM FEW050 BKN250
     FM260300 16013KT P6SM BKN250
     FM261200 18008KT P6SM SHRA VCTS OVC070CB
     FM261900 20006KT P6SM SHRA VCTS OVC050CB
     FM262100 32005KT 5SM SHRA VCTS BKN050CB=

USA.gov is the U.S. government's official web portal to all federal, state and local government web resources and services.